Weather at Newport Regional Airport

Public forecast

Using degrees Fahrenheit for public forecast. Weather courtesy of forecast.io.

Current aviation weather report (METAR) for Newport Regional Airport

Retrieved UTC (0 seconds ago):

Closest aviation forecast (TAF) to Newport Regional Airport

Closest forecast is Jonesboro Municipal Airport, 28.3 nm (52.5 km) ENE. Retrieved 2020/10/01 18:22 UTC (4 hours ago):

TAF KJBR 011720Z 0118/0218 32010G19KT P6SM SKC FM020200 35004KT P6SM SKC FM021400 02006KT P6SM SKC